sensor_id;sensor_type;location;lat;lon;timestamp;temperature;humidity
15239;DHT22;7722;53.274;9.500;2023-03-16T00:02:23;-1.50;99.90
15239;DHT22;7722;53.274;9.500;2023-03-16T00:04:50;-1.50;99.90
15239;DHT22;7722;53.274;9.500;2023-03-16T00:07:18;-1.50;99.90
15239;DHT22;7722;53.274;9.500;2023-03-16T00:09:46;-1.70;99.90
15239;DHT22;7722;53.274;9.500;2023-03-16T00:12:15;-1.70;99.90
15239;DHT22;7722;53.274;9.500;2023-03-16T00:14:43;-1.70;99.90
15239;DHT22;7722;53.274;9.500;2023-03-16T00:17:13;-1.70;99.90
15239;DHT22;7722;53.274;9.500;2023-03-16T00:19:45;-1.70;99.90
15239;DHT22;7722;53.274;9.500;2023-03-16T00:22:14;-1.70;99.90
15239;DHT22;7722;53.274;9.500;2023-03-16T00:24:42;-1.70;99.90
15239;DHT22;7722;53.274;9.500;2023-03-16T00:27:10;-1.70;99.90
15239;DHT22;7722;53.274;9.500;2023-03-16T00:29:40;-1.70;99.90
15239;DHT22;7722;53.274;9.500;2023-03-16T00:32:14;-1.70;99.90
15239;DHT22;7722;53.274;9.500;2023-03-16T00:34:42;-1.70;99.90
15239;DHT22;7722;53.274;9.500;2023-03-16T00:37:10;-1.70;99.90
15239;DHT22;7722;53.274;9.500;2023-03-16T00:39:40;-1.80;99.90
15239;DHT22;7722;53.274;9.500;2023-03-16T00:42:08;-1.80;99.90
15239;DHT22;7722;53.274;9.500;2023-03-16T00:44:35;-1.80;99.90
15239;DHT22;7722;53.274;9.500;2023-03-16T00:47:03;-1.70;99.90
15239;DHT22;7722;53.274;9.500;2023-03-16T00:49:33;-1.80;99.90
15239;DHT22;7722;53.274;9.500;2023-03-16T00:52:01;-1.70;99.90
15239;DHT22;7722;53.274;9.500;2023-03-16T00:54:28;-1.60;99.90
15239;DHT22;7722;53.274;9.500;2023-03-16T00:56:57;-1.60;99.90
15239;DHT22;7722;53.274;9.500;2023-03-16T00:59:25;-1.70;99.90
15239;DHT22;7722;53.274;9.500;2023-03-16T01:01:52;-1.60;99.90
15239;DHT22;7722;53.274;9.500;2023-03-16T01:04:21;-1.60;99.90
15239;DHT22;7722;53.274;9.500;2023-03-16T01:06:50;-1.60;99.90
15239;DHT22;7722;53.274;9.500;2023-03-16T01:09:17;-1.60;99.90
15239;DHT22;7722;53.274;9.500;2023-03-16T01:11:44;-1.50;99.90
15239;DHT22;7722;53.274;9.500;2023-03-16T01:14:13;-1.50;99.90
15239;DHT22;7722;53.274;9.500;2023-03-16T01:16:40;-1.50;99.90
15239;DHT22;7722;53.274;9.500;2023-03-16T01:19:10;-1.50;99.90
15239;DHT22;7722;53.274;9.500;2023-03-16T01:21:38;-1.50;99.90
15239;DHT22;7722;53.274;9.500;2023-03-16T01:24:07;-1.60;99.90
15239;DHT22;7722;53.274;9.500;2023-03-16T01:26:35;-1.60;99.90
15239;DHT22;7722;53.274;9.500;2023-03-16T01:29:08;-1.60;99.90
15239;DHT22;7722;53.274;9.500;2023-03-16T01:31:39;-1.60;99.90
15239;DHT22;7722;53.274;9.500;2023-03-16T01:34:07;-1.60;99.90
15239;DHT22;7722;53.274;9.500;2023-03-16T01:36:41;-1.60;99.90
15239;DHT22;7722;53.274;9.500;2023-03-16T01:39:10;-1.60;99.90
15239;DHT22;7722;53.274;9.500;2023-03-16T01:41:38;-1.60;99.90
15239;DHT22;7722;53.274;9.500;2023-03-16T01:44:06;-1.60;99.90
15239;DHT22;7722;53.274;9.500;2023-03-16T01:46:33;-1.70;99.90
15239;DHT22;7722;53.274;9.500;2023-03-16T01:49:07;-1.60;99.90
15239;DHT22;7722;53.274;9.500;2023-03-16T01:51:37;-1.60;99.90
15239;DHT22;7722;53.274;9.500;2023-03-16T01:54:14;-1.60;99.90
15239;DHT22;7722;53.274;9.500;2023-03-16T01:56:50;-1.60;99.90
15239;DHT22;7722;53.274;9.500;2023-03-16T01:59:22;-1.50;99.90
15239;DHT22;7722;53.274;9.500;2023-03-16T02:01:51;-1.50;99.90
15239;DHT22;7722;53.274;9.500;2023-03-16T02:04:41;-1.50;99.90
15239;DHT22;7722;53.274;9.500;2023-03-16T02:07:10;-1.60;99.90
15239;DHT22;7722;53.274;9.500;2023-03-16T02:09:44;-1.60;99.90
15239;DHT22;7722;53.274;9.500;2023-03-16T02:12:13;-1.70;99.90
15239;DHT22;7722;53.274;9.500;2023-03-16T02:14:43;-1.80;99.90
15239;DHT22;7722;53.274;9.500;2023-03-16T02:17:11;-1.80;99.90
15239;DHT22;7722;53.274;9.500;2023-03-16T02:19:44;-1.80;99.90
15239;DHT22;7722;53.274;9.500;2023-03-16T02:22:17;-1.80;99.90
15239;DHT22;7722;53.274;9.500;2023-03-16T02:24:46;-1.80;99.90
15239;DHT22;7722;53.274;9.500;2023-03-16T02:27:16;-1.70;99.90
15239;DHT22;7722;53.274;9.500;2023-03-16T02:30:07;-1.70;99.90
15239;DHT22;7722;53.274;9.500;2023-03-16T02:32:35;-1.70;99.90
15239;DHT22;7722;53.274;9.500;2023-03-16T02:35:04;-1.80;99.90
15239;DHT22;7722;53.274;9.500;2023-03-16T02:37:32;-1.80;99.90
15239;DHT22;7722;53.274;9.500;2023-03-16T02:40:00;-1.80;99.90
15239;DHT22;7722;53.274;9.500;2023-03-16T02:42:30;-1.80;99.90
15239;DHT22;7722;53.274;9.500;2023-03-16T02:44:59;-1.80;99.90
15239;DHT22;7722;53.274;9.500;2023-03-16T02:47:33;-1.90;99.90
15239;DHT22;7722;53.274;9.500;2023-03-16T02:50:01;-1.90;99.90
15239;DHT22;7722;53.274;9.500;2023-03-16T02:52:32;-1.80;99.90
15239;DHT22;7722;53.274;9.500;2023-03-16T02:54:59;-1.80;99.90
15239;DHT22;7722;53.274;9.500;2023-03-16T02:57:26;-1.80;99.90
15239;DHT22;7722;53.274;9.500;2023-03-16T02:59:53;-1.80;99.90
15239;DHT22;7722;53.274;9.500;2023-03-16T03:02:21;-1.80;99.90
15239;DHT22;7722;53.274;9.500;2023-03-16T03:04:50;-1.80;99.90
15239;DHT22;7722;53.274;9.500;2023-03-16T03:07:20;-1.80;99.90
15239;DHT22;7722;53.274;9.500;2023-03-16T03:09:57;-1.80;99.90
15239;DHT22;7722;53.274;9.500;2023-03-16T03:12:24;-1.80;99.90
15239;DHT22;7722;53.274;9.500;2023-03-16T03:14:51;-1.80;99.90
15239;DHT22;7722;53.274;9.500;2023-03-16T03:17:19;-1.80;99.90
15239;DHT22;7722;53.274;9.500;2023-03-16T03:19:46;-1.80;99.90
15239;DHT22;7722;53.274;9.500;2023-03-16T03:22:15;-1.80;99.90
15239;DHT22;7722;53.274;9.500;2023-03-16T03:24:43;-1.80;99.90
15239;DHT22;7722;53.274;9.500;2023-03-16T03:27:10;-1.70;99.90
15239;DHT22;7722;53.274;9.500;2023-03-16T03:29:37;-1.70;99.90
15239;DHT22;7722;53.274;9.500;2023-03-16T03:32:05;-1.70;99.90
15239;DHT22;7722;53.274;9.500;2023-03-16T03:34:33;-1.70;99.90
15239;DHT22;7722;53.274;9.500;2023-03-16T03:37:00;-1.80;99.90
15239;DHT22;7722;53.274;9.500;2023-03-16T03:39:28;-1.80;99.90
15239;DHT22;7722;53.274;9.500;2023-03-16T03:41:56;-1.80;99.90
15239;DHT22;7722;53.274;9.500;2023-03-16T03:44:23;-1.80;99.90
15239;DHT22;7722;53.274;9.500;2023-03-16T03:46:51;-1.90;99.90
15239;DHT22;7722;53.274;9.500;2023-03-16T03:49:18;-1.90;99.90
15239;DHT22;7722;53.274;9.500;2023-03-16T03:51:45;-1.90;99.90
15239;DHT22;7722;53.274;9.500;2023-03-16T03:54:13;-1.90;99.90
15239;DHT22;7722;53.274;9.500;2023-03-16T03:56:41;-2.00;99.90
15239;DHT22;7722;53.274;9.500;2023-03-16T03:59:09;-2.00;99.90
15239;DHT22;7722;53.274;9.500;2023-03-16T04:01:36;-2.00;99.90
15239;DHT22;7722;53.274;9.500;2023-03-16T04:04:03;-2.10;99.90
15239;DHT22;7722;53.274;9.500;2023-03-16T04:06:30;-2.20;99.90
15239;DHT22;7722;53.274;9.500;2023-03-16T04:08:57;-2.20;99.90
15239;DHT22;7722;53.274;9.500;2023-03-16T04:11:25;-2.30;99.90
15239;DHT22;7722;53.274;9.500;2023-03-16T04:13:53;-2.30;99.90
15239;DHT22;7722;53.274;9.500;2023-03-16T04:16:20;-2.30;99.90
15239;DHT22;7722;53.274;9.500;2023-03-16T04:18:51;-2.30;99.90
15239;DHT22;7722;53.274;9.500;2023-03-16T04:21:19;-2.30;99.90
15239;DHT22;7722;53.274;9.500;2023-03-16T04:23:47;-2.40;99.90
15239;DHT22;7722;53.274;9.500;2023-03-16T04:26:15;-2.40;99.90
15239;DHT22;7722;53.274;9.500;2023-03-16T04:28:42;-2.40;99.90
15239;DHT22;7722;53.274;9.500;2023-03-16T04:31:11;-2.40;99.90
15239;DHT22;7722;53.274;9.500;2023-03-16T04:33:39;-2.40;99.90
15239;DHT22;7722;53.274;9.500;2023-03-16T04:36:07;-2.40;99.90
15239;DHT22;7722;53.274;9.500;2023-03-16T04:38:35;-2.30;99.90
15239;DHT22;7722;53.274;9.500;2023-03-16T04:41:04;-2.30;99.90
15239;DHT22;7722;53.274;9.500;2023-03-16T04:43:32;-2.20;99.90
15239;DHT22;7722;53.274;9.500;2023-03-16T04:46:00;-2.20;99.90
15239;DHT22;7722;53.274;9.500;2023-03-16T04:48:29;-2.00;99.90
15239;DHT22;7722;53.274;9.500;2023-03-16T04:50:56;-1.90;99.90
15239;DHT22;7722;53.274;9.500;2023-03-16T04:53:23;-1.80;99.90
15239;DHT22;7722;53.274;9.500;2023-03-16T04:55:51;-1.70;99.90
15239;DHT22;7722;53.274;9.500;2023-03-16T04:58:18;-1.60;99.90
15239;DHT22;7722;53.274;9.500;2023-03-16T05:00:45;-1.60;99.90
15239;DHT22;7722;53.274;9.500;2023-03-16T05:03:13;-1.50;99.90
15239;DHT22;7722;53.274;9.500;2023-03-16T05:05:42;-1.40;99.90
15239;DHT22;7722;53.274;9.500;2023-03-16T05:08:10;-1.30;99.90
15239;DHT22;7722;53.274;9.500;2023-03-16T05:10:38;-1.20;99.90
15239;DHT22;7722;53.274;9.500;2023-03-16T05:13:05;-1.10;99.90
15239;DHT22;7722;53.274;9.500;2023-03-16T05:15:32;-1.10;99.90
15239;DHT22;7722;53.274;9.500;2023-03-16T05:18:00;-1.00;99.90
15239;DHT22;7722;53.274;9.500;2023-03-16T05:20:27;-0.90;99.90
15239;DHT22;7722;53.274;9.500;2023-03-16T05:22:56;-0.80;99.90
15239;DHT22;7722;53.274;9.500;2023-03-16T05:25:23;-0.80;99.90
15239;DHT22;7722;53.274;9.500;2023-03-16T05:27:51;-0.70;99.90
15239;DHT22;7722;53.274;9.500;2023-03-16T05:30:19;-0.60;99.90
15239;DHT22;7722;53.274;9.500;2023-03-16T05:32:47;-0.60;99.90
15239;DHT22;7722;53.274;9.500;2023-03-16T05:35:14;-0.50;99.90
15239;DHT22;7722;53.274;9.500;2023-03-16T05:37:41;-0.40;99.90
15239;DHT22;7722;53.274;9.500;2023-03-16T05:40:12;-0.40;99.90
15239;DHT22;7722;53.274;9.500;2023-03-16T05:42:42;-0.30;99.90
15239;DHT22;7722;53.274;9.500;2023-03-16T05:45:11;-0.40;99.90
15239;DHT22;7722;53.274;9.500;2023-03-16T05:47:39;-0.30;99.90
15239;DHT22;7722;53.274;9.500;2023-03-16T05:50:10;-0.30;99.90
15239;DHT22;7722;53.274;9.500;2023-03-16T05:52:37;-0.20;99.90
15239;DHT22;7722;53.274;9.500;2023-03-16T05:55:06;-0.20;99.90
15239;DHT22;7722;53.274;9.500;2023-03-16T05:57:35;-0.20;99.90
15239;DHT22;7722;53.274;9.500;2023-03-16T06:00:04;-0.10;99.90
15239;DHT22;7722;53.274;9.500;2023-03-16T06:02:39;0.00;99.90
15239;DHT22;7722;53.274;9.500;2023-03-16T06:05:07;0.10;99.90
15239;DHT22;7722;53.274;9.500;2023-03-16T06:07:34;0.20;99.90
15239;DHT22;7722;53.274;9.500;2023-03-16T06:10:02;0.30;99.90
15239;DHT22;7722;53.274;9.500;2023-03-16T06:12:30;0.30;99.90
15239;DHT22;7722;53.274;9.500;2023-03-16T06:14:58;0.50;99.90
15239;DHT22;7722;53.274;9.500;2023-03-16T06:17:25;0.50;99.90
15239;DHT22;7722;53.274;9.500;2023-03-16T06:19:53;0.50;99.90
15239;DHT22;7722;53.274;9.500;2023-03-16T06:22:22;0.60;99.90
15239;DHT22;7722;53.274;9.500;2023-03-16T06:25:04;0.60;99.90
15239;DHT22;7722;53.274;9.500;2023-03-16T06:27:32;0.70;99.90
15239;DHT22;7722;53.274;9.500;2023-03-16T06:30:01;0.70;99.90
15239;DHT22;7722;53.274;9.500;2023-03-16T06:32:29;0.80;99.90
15239;DHT22;7722;53.274;9.500;2023-03-16T06:34:56;0.90;99.90
15239;DHT22;7722;53.274;9.500;2023-03-16T06:37:29;0.90;99.90
15239;DHT22;7722;53.274;9.500;2023-03-16T06:43:14;0.90;99.90
15239;DHT22;7722;53.274;9.500;2023-03-16T06:45:45;1.00;99.90
15239;DHT22;7722;53.274;9.500;2023-03-16T06:48:13;1.10;99.90
15239;DHT22;7722;53.274;9.500;2023-03-16T06:50:44;1.20;99.90
15239;DHT22;7722;53.274;9.500;2023-03-16T06:53:16;1.30;99.90
15239;DHT22;7722;53.274;9.500;2023-03-16T06:55:43;1.30;99.90
15239;DHT22;7722;53.274;9.500;2023-03-16T06:58:14;1.40;99.90
15239;DHT22;7722;53.274;9.500;2023-03-16T07:01:03;1.50;99.90
15239;DHT22;7722;53.274;9.500;2023-03-16T07:03:31;1.60;99.90
15239;DHT22;7722;53.274;9.500;2023-03-16T07:05:58;1.70;99.90
15239;DHT22;7722;53.274;9.500;2023-03-16T07:08:25;1.80;99.90
15239;DHT22;7722;53.274;9.500;2023-03-16T07:10:52;1.90;99.90
15239;DHT22;7722;53.274;9.500;2023-03-16T07:13:19;1.90;99.90
15239;DHT22;7722;53.274;9.500;2023-03-16T07:15:49;2.00;99.90
15239;DHT22;7722;53.274;9.500;2023-03-16T07:18:18;2.00;99.90
15239;DHT22;7722;53.274;9.500;2023-03-16T07:20:45;2.00;99.90
15239;DHT22;7722;53.274;9.500;2023-03-16T07:23:12;2.00;99.90
15239;DHT22;7722;53.274;9.500;2023-03-16T07:25:39;2.10;99.90
15239;DHT22;7722;53.274;9.500;2023-03-16T07:28:07;2.20;99.90
15239;DHT22;7722;53.274;9.500;2023-03-16T07:30:34;2.20;99.90
15239;DHT22;7722;53.274;9.500;2023-03-16T07:33:01;2.40;99.90
15239;DHT22;7722;53.274;9.500;2023-03-16T07:35:30;2.50;99.90
15239;DHT22;7722;53.274;9.500;2023-03-16T07:37:57;2.60;99.90
15239;DHT22;7722;53.274;9.500;2023-03-16T07:40:24;2.60;99.90
15239;DHT22;7722;53.274;9.500;2023-03-16T07:42:51;2.70;99.90
15239;DHT22;7722;53.274;9.500;2023-03-16T07:45:18;2.70;99.90
15239;DHT22;7722;53.274;9.500;2023-03-16T07:47:46;2.80;99.90
15239;DHT22;7722;53.274;9.500;2023-03-16T07:50:13;2.90;99.90
15239;DHT22;7722;53.274;9.500;2023-03-16T07:52:43;3.00;99.90
15239;DHT22;7722;53.274;9.500;2023-03-16T07:55:11;3.10;99.90
15239;DHT22;7722;53.274;9.500;2023-03-16T07:57:38;3.20;99.90
15239;DHT22;7722;53.274;9.500;2023-03-16T08:00:08;3.30;99.90
15239;DHT22;7722;53.274;9.500;2023-03-16T08:02:35;3.40;99.90
15239;DHT22;7722;53.274;9.500;2023-03-16T08:05:03;3.50;99.90
15239;DHT22;7722;53.274;9.500;2023-03-16T08:07:30;3.70;99.90
15239;DHT22;7722;53.274;9.500;2023-03-16T08:09:59;3.80;99.90
15239;DHT22;7722;53.274;9.500;2023-03-16T08:12:26;3.90;99.90
15239;DHT22;7722;53.274;9.500;2023-03-16T08:14:53;3.90;99.90
15239;DHT22;7722;53.274;9.500;2023-03-16T08:17:20;4.00;99.90
15239;DHT22;7722;53.274;9.500;2023-03-16T08:19:47;4.10;99.90
15239;DHT22;7722;53.274;9.500;2023-03-16T08:22:14;4.10;99.90
15239;DHT22;7722;53.274;9.500;2023-03-16T08:24:41;4.20;99.90
15239;DHT22;7722;53.274;9.500;2023-03-16T08:27:10;4.30;99.90
15239;DHT22;7722;53.274;9.500;2023-03-16T08:29:37;4.40;99.90
15239;DHT22;7722;53.274;9.500;2023-03-16T08:32:05;4.50;99.90
15239;DHT22;7722;53.274;9.500;2023-03-16T08:34:32;4.60;99.90
15239;DHT22;7722;53.274;9.500;2023-03-16T08:37:01;4.70;99.90
15239;DHT22;7722;53.274;9.500;2023-03-16T08:39:28;4.90;99.90
15239;DHT22;7722;53.274;9.500;2023-03-16T08:41:56;5.00;99.90
15239;DHT22;7722;53.274;9.500;2023-03-16T08:44:24;5.20;99.90
15239;DHT22;7722;53.274;9.500;2023-03-16T08:46:52;5.40;99.90
15239;DHT22;7722;53.274;9.500;2023-03-16T08:49:19;5.60;99.90
15239;DHT22;7722;53.274;9.500;2023-03-16T08:51:46;5.70;99.90
15239;DHT22;7722;53.274;9.500;2023-03-16T08:54:13;5.80;99.90
15239;DHT22;7722;53.274;9.500;2023-03-16T08:56:41;5.80;99.90
15239;DHT22;7722;53.274;9.500;2023-03-16T08:59:09;6.00;99.90
15239;DHT22;7722;53.274;9.500;2023-03-16T09:01:37;6.10;99.90
15239;DHT22;7722;53.274;9.500;2023-03-16T09:04:05;6.20;99.10
15239;DHT22;7722;53.274;9.500;2023-03-16T09:06:32;6.40;99.40
15239;DHT22;7722;53.274;9.500;2023-03-16T09:09:00;6.60;99.30
15239;DHT22;7722;53.274;9.500;2023-03-16T09:11:29;6.70;98.00
15239;DHT22;7722;53.274;9.500;2023-03-16T09:13:58;6.60;97.60
15239;DHT22;7722;53.274;9.500;2023-03-16T09:16:26;6.80;98.00
15239;DHT22;7722;53.274;9.500;2023-03-16T09:18:57;6.90;97.70
15239;DHT22;7722;53.274;9.500;2023-03-16T09:21:24;7.00;97.00
15239;DHT22;7722;53.274;9.500;2023-03-16T09:23:51;6.90;97.00
15239;DHT22;7722;53.274;9.500;2023-03-16T09:26:19;7.00;96.60
15239;DHT22;7722;53.274;9.500;2023-03-16T09:28:46;7.10;96.10
15239;DHT22;7722;53.274;9.500;2023-03-16T09:31:16;7.20;96.50
15239;DHT22;7722;53.274;9.500;2023-03-16T09:33:43;7.20;96.50
15239;DHT22;7722;53.274;9.500;2023-03-16T09:36:12;7.10;95.30
15239;DHT22;7722;53.274;9.500;2023-03-16T09:38:40;7.00;94.70
15239;DHT22;7722;53.274;9.500;2023-03-16T09:41:12;7.10;94.80
15239;DHT22;7722;53.274;9.500;2023-03-16T09:44:02;7.10;94.90
15239;DHT22;7722;53.274;9.500;2023-03-16T09:46:34;7.40;94.80
15239;DHT22;7722;53.274;9.500;2023-03-16T09:49:03;7.50;93.90
15239;DHT22;7722;53.274;9.500;2023-03-16T09:51:41;7.60;93.90
15239;DHT22;7722;53.274;9.500;2023-03-16T09:54:19;7.60;92.70
15239;DHT22;7722;53.274;9.500;2023-03-16T09:56:48;7.50;93.80
15239;DHT22;7722;53.274;9.500;2023-03-16T09:59:17;7.60;93.60
15239;DHT22;7722;53.274;9.500;2023-03-16T10:01:57;7.80;93.50
15239;DHT22;7722;53.274;9.500;2023-03-16T10:04:39;7.70;93.20
15239;DHT22;7722;53.274;9.500;2023-03-16T10:07:20;7.70;92.30
15239;DHT22;7722;53.274;9.500;2023-03-16T10:09:55;7.70;91.80
15239;DHT22;7722;53.274;9.500;2023-03-16T10:12:27;7.70;92.10
15239;DHT22;7722;53.274;9.500;2023-03-16T10:15:00;7.80;91.70
15239;DHT22;7722;53.274;9.500;2023-03-16T10:17:34;8.00;91.30
15239;DHT22;7722;53.274;9.500;2023-03-16T10:20:05;7.90;90.60
15239;DHT22;7722;53.274;9.500;2023-03-16T10:22:37;8.20;91.60
15239;DHT22;7722;53.274;9.500;2023-03-16T10:25:08;8.50;91.20
15239;DHT22;7722;53.274;9.500;2023-03-16T10:27:41;8.50;90.20
15239;DHT22;7722;53.274;9.500;2023-03-16T10:30:19;8.40;90.70
15239;DHT22;7722;53.274;9.500;2023-03-16T10:32:48;8.40;90.00
15239;DHT22;7722;53.274;9.500;2023-03-16T10:35:26;8.50;89.80
15239;DHT22;7722;53.274;9.500;2023-03-16T10:37:57;8.50;88.10
15239;DHT22;7722;53.274;9.500;2023-03-16T10:40:25;8.60;89.20
15239;DHT22;7722;53.274;9.500;2023-03-16T10:42:53;8.70;87.60
15239;DHT22;7722;53.274;9.500;2023-03-16T10:45:24;8.80;87.80
15239;DHT22;7722;53.274;9.500;2023-03-16T10:48:05;8.90;86.70
15239;DHT22;7722;53.274;9.500;2023-03-16T10:50:32;8.90;88.60
15239;DHT22;7722;53.274;9.500;2023-03-16T10:53:02;9.10;86.80
15239;DHT22;7722;53.274;9.500;2023-03-16T10:55:39;9.20;86.30
15239;DHT22;7722;53.274;9.500;2023-03-16T10:58:08;9.30;87.10
15239;DHT22;7722;53.274;9.500;2023-03-16T11:00:37;9.30;88.20
15239;DHT22;7722;53.274;9.500;2023-03-16T11:03:20;9.40;84.50
15239;DHT22;7722;53.274;9.500;2023-03-16T11:05:56;9.40;82.10
15239;DHT22;7722;53.274;9.500;2023-03-16T11:08:26;9.30;82.00
15239;DHT22;7722;53.274;9.500;2023-03-16T11:10:58;9.30;84.10
15239;DHT22;7722;53.274;9.500;2023-03-16T11:13:32;9.10;82.50
15239;DHT22;7722;53.274;9.500;2023-03-16T11:16:05;9.30;85.70
15239;DHT22;7722;53.274;9.500;2023-03-16T11:18:43;9.40;81.90
15239;DHT22;7722;53.274;9.500;2023-03-16T11:21:15;9.60;82.80
15239;DHT22;7722;53.274;9.500;2023-03-16T11:23:47;9.50;81.70
15239;DHT22;7722;53.274;9.500;2023-03-16T11:26:20;9.60;79.50
15239;DHT22;7722;53.274;9.500;2023-03-16T11:28:53;9.60;80.10
15239;DHT22;7722;53.274;9.500;2023-03-16T11:31:36;9.60;79.30
15239;DHT22;7722;53.274;9.500;2023-03-16T11:34:13;9.60;81.10
15239;DHT22;7722;53.274;9.500;2023-03-16T11:36:47;9.60;79.30
15239;DHT22;7722;53.274;9.500;2023-03-16T11:39:30;9.90;79.20
15239;DHT22;7722;53.274;9.500;2023-03-16T11:42:09;9.90;81.50
15239;DHT22;7722;53.274;9.500;2023-03-16T11:44:44;9.90;80.80
15239;DHT22;7722;53.274;9.500;2023-03-16T11:47:44;10.10;80.10
15239;DHT22;7722;53.274;9.500;2023-03-16T11:50:17;10.20;78.20
15239;DHT22;7722;53.274;9.500;2023-03-16T11:52:54;10.20;75.60
15239;DHT22;7722;53.274;9.500;2023-03-16T11:55:31;10.20;77.50
15239;DHT22;7722;53.274;9.500;2023-03-16T11:58:07;10.10;78.60
15239;DHT22;7722;53.274;9.500;2023-03-16T12:00:49;10.30;78.60
15239;DHT22;7722;53.274;9.500;2023-03-16T12:06:28;10.50;77.30
15239;DHT22;7722;53.274;9.500;2023-03-16T12:12:02;10.30;77.60
15239;DHT22;7722;53.274;9.500;2023-03-16T12:14:35;10.20;75.80
15239;DHT22;7722;53.274;9.500;2023-03-16T12:17:10;10.10;77.80
15239;DHT22;7722;53.274;9.500;2023-03-16T12:19:43;10.00;75.40
15239;DHT22;7722;53.274;9.500;2023-03-16T12:22:17;10.00;76.70
15239;DHT22;7722;53.274;9.500;2023-03-16T12:24:47;10.20;76.10
15239;DHT22;7722;53.274;9.500;2023-03-16T12:27:19;10.40;76.20
15239;DHT22;7722;53.274;9.500;2023-03-16T12:30:02;10.40;75.50
15239;DHT22;7722;53.274;9.500;2023-03-16T12:32:37;10.60;76.00
15239;DHT22;7722;53.274;9.500;2023-03-16T12:35:17;10.50;74.70
15239;DHT22;7722;53.274;9.500;2023-03-16T12:37:56;10.10;74.20
15239;DHT22;7722;53.274;9.500;2023-03-16T12:40:31;10.00;74.70
15239;DHT22;7722;53.274;9.500;2023-03-16T12:43:09;10.00;73.90
15239;DHT22;7722;53.274;9.500;2023-03-16T12:45:53;9.80;74.60
15239;DHT22;7722;53.274;9.500;2023-03-16T12:48:26;9.80;76.40
15239;DHT22;7722;53.274;9.500;2023-03-16T12:50:57;9.60;73.70
15239;DHT22;7722;53.274;9.500;2023-03-16T12:53:27;9.60;75.30
15239;DHT22;7722;53.274;9.500;2023-03-16T12:55:55;9.60;74.30
15239;DHT22;7722;53.274;9.500;2023-03-16T12:58:24;9.60;73.10
15239;DHT22;7722;53.274;9.500;2023-03-16T13:00:57;9.70;72.90
15239;DHT22;7722;53.274;9.500;2023-03-16T13:03:25;10.00;72.90
15239;DHT22;7722;53.274;9.500;2023-03-16T13:05:56;9.90;73.80
15239;DHT22;7722;53.274;9.500;2023-03-16T13:08:26;9.80;75.80
15239;DHT22;7722;53.274;9.500;2023-03-16T13:11:04;9.80;74.70
15239;DHT22;7722;53.274;9.500;2023-03-16T13:13:34;9.60;73.50
15239;DHT22;7722;53.274;9.500;2023-03-16T13:16:04;9.50;73.70
15239;DHT22;7722;53.274;9.500;2023-03-16T13:18:36;9.50;75.40
15239;DHT22;7722;53.274;9.500;2023-03-16T13:21:15;9.40;76.10
15239;DHT22;7722;53.274;9.500;2023-03-16T13:23:56;9.30;74.70
15239;DHT22;7722;53.274;9.500;2023-03-16T13:26:38;9.20;73.80
15239;DHT22;7722;53.274;9.500;2023-03-16T13:29:23;9.10;75.00
15239;DHT22;7722;53.274;9.500;2023-03-16T13:31:52;9.20;76.40
15239;DHT22;7722;53.274;9.500;2023-03-16T13:34:22;9.30;77.80
15239;DHT22;7722;53.274;9.500;2023-03-16T13:36:53;9.30;77.90
15239;DHT22;7722;53.274;9.500;2023-03-16T13:39:24;9.30;76.70
15239;DHT22;7722;53.274;9.500;2023-03-16T13:41:57;9.30;75.60
15239;DHT22;7722;53.274;9.500;2023-03-16T13:44:27;9.30;73.50
15239;DHT22;7722;53.274;9.500;2023-03-16T13:46:54;9.40;74.80
15239;DHT22;7722;53.274;9.500;2023-03-16T13:49:22;9.70;75.80
15239;DHT22;7722;53.274;9.500;2023-03-16T13:51:49;9.80;72.90
15239;DHT22;7722;53.274;9.500;2023-03-16T13:54:24;10.20;73.70
15239;DHT22;7722;53.274;9.500;2023-03-16T13:56:55;10.50;70.90
15239;DHT22;7722;53.274;9.500;2023-03-16T13:59:23;10.60;70.40
15239;DHT22;7722;53.274;9.500;2023-03-16T14:01:58;10.60;70.90
15239;DHT22;7722;53.274;9.500;2023-03-16T14:04:29;10.80;72.20
15239;DHT22;7722;53.274;9.500;2023-03-16T14:06:58;11.00;69.10
15239;DHT22;7722;53.274;9.500;2023-03-16T14:09:28;11.20;68.30
15239;DHT22;7722;53.274;9.500;2023-03-16T14:11:58;10.80;68.50
15239;DHT22;7722;53.274;9.500;2023-03-16T14:14:28;10.40;69.10
15239;DHT22;7722;53.274;9.500;2023-03-16T14:17:02;10.20;69.20
15239;DHT22;7722;53.274;9.500;2023-03-16T14:19:33;10.10;68.90
15239;DHT22;7722;53.274;9.500;2023-03-16T14:22:14;9.90;69.40
15239;DHT22;7722;53.274;9.500;2023-03-16T14:24:43;9.90;69.80
15239;DHT22;7722;53.274;9.500;2023-03-16T14:27:30;9.80;71.20
15239;DHT22;7722;53.274;9.500;2023-03-16T14:30:00;9.80;72.00
15239;DHT22;7722;53.274;9.500;2023-03-16T14:32:30;9.70;72.90
15239;DHT22;7722;53.274;9.500;2023-03-16T14:35:19;9.60;72.80
15239;DHT22;7722;53.274;9.500;2023-03-16T14:37:47;9.60;73.10
15239;DHT22;7722;53.274;9.500;2023-03-16T14:40:27;9.70;73.00
15239;DHT22;7722;53.274;9.500;2023-03-16T14:42:57;9.80;72.80
15239;DHT22;7722;53.274;9.500;2023-03-16T14:45:29;9.70;73.00
15239;DHT22;7722;53.274;9.500;2023-03-16T14:48:04;9.80;76.20
15239;DHT22;7722;53.274;9.500;2023-03-16T14:50:31;9.70;74.30
15239;DHT22;7722;53.274;9.500;2023-03-16T14:53:00;9.60;73.60
15239;DHT22;7722;53.274;9.500;2023-03-16T14:55:28;9.50;74.80
15239;DHT22;7722;53.274;9.500;2023-03-16T14:57:56;9.30;74.40
15239;DHT22;7722;53.274;9.500;2023-03-16T15:00:23;9.20;75.70
15239;DHT22;7722;53.274;9.500;2023-03-16T15:02:58;9.20;76.00
15239;DHT22;7722;53.274;9.500;2023-03-16T15:05:34;9.10;75.40
15239;DHT22;7722;53.274;9.500;2023-03-16T15:08:04;9.10;77.40
15239;DHT22;7722;53.274;9.500;2023-03-16T15:10:34;9.10;75.50
15239;DHT22;7722;53.274;9.500;2023-03-16T15:13:01;9.10;78.20
15239;DHT22;7722;53.274;9.500;2023-03-16T15:15:38;9.00;76.30
15239;DHT22;7722;53.274;9.500;2023-03-16T15:18:07;9.00;75.60
15239;DHT22;7722;53.274;9.500;2023-03-16T15:20:40;9.00;76.40
15239;DHT22;7722;53.274;9.500;2023-03-16T15:23:12;9.00;79.40
15239;DHT22;7722;53.274;9.500;2023-03-16T15:25:42;8.90;78.60
15239;DHT22;7722;53.274;9.500;2023-03-16T15:28:12;8.80;78.10
15239;DHT22;7722;53.274;9.500;2023-03-16T15:30:40;8.80;78.70
15239;DHT22;7722;53.274;9.500;2023-03-16T15:33:08;8.80;78.40
15239;DHT22;7722;53.274;9.500;2023-03-16T15:35:37;8.70;78.80
15239;DHT22;7722;53.274;9.500;2023-03-16T15:38:06;8.70;76.90
15239;DHT22;7722;53.274;9.500;2023-03-16T15:40:38;8.80;78.10
15239;DHT22;7722;53.274;9.500;2023-03-16T15:43:10;8.70;78.30
15239;DHT22;7722;53.274;9.500;2023-03-16T15:45:37;8.70;77.10
15239;DHT22;7722;53.274;9.500;2023-03-16T15:48:05;8.70;79.30
15239;DHT22;7722;53.274;9.500;2023-03-16T15:50:32;8.70;79.70
15239;DHT22;7722;53.274;9.500;2023-03-16T15:53:04;8.60;80.00
15239;DHT22;7722;53.274;9.500;2023-03-16T15:55:35;8.60;77.70
15239;DHT22;7722;53.274;9.500;2023-03-16T15:58:04;8.50;78.20
15239;DHT22;7722;53.274;9.500;2023-03-16T16:00:34;8.50;77.70
15239;DHT22;7722;53.274;9.500;2023-03-16T16:03:04;8.50;78.90
15239;DHT22;7722;53.274;9.500;2023-03-16T16:05:32;8.60;78.10
15239;DHT22;7722;53.274;9.500;2023-03-16T16:08:02;8.60;77.20
15239;DHT22;7722;53.274;9.500;2023-03-16T16:10:29;8.60;77.40
15239;DHT22;7722;53.274;9.500;2023-03-16T16:12:57;8.70;78.50
15239;DHT22;7722;53.274;9.500;2023-03-16T16:15:27;8.60;76.80
15239;DHT22;7722;53.274;9.500;2023-03-16T16:17:55;8.60;77.80
15239;DHT22;7722;53.274;9.500;2023-03-16T16:20:25;8.60;77.70
15239;DHT22;7722;53.274;9.500;2023-03-16T16:22:53;8.50;78.60
15239;DHT22;7722;53.274;9.500;2023-03-16T16:25:27;8.50;77.70